sensor_id;sensor_type;location;lat;lon;timestamp;P1;durP1;ratioP1;P2;durP2;ratioP2
21876;SDS011;11103;43.788;23.710;2023-02-26T00:00:25;113.20;;;55.80;;
21876;SDS011;11103;43.788;23.710;2023-02-26T00:02:51;107.27;;;55.37;;
21876;SDS011;11103;43.788;23.710;2023-02-26T00:05:16;105.90;;;54.77;;
21876;SDS011;11103;43.788;23.710;2023-02-26T00:07:42;103.83;;;55.93;;
21876;SDS011;11103;43.788;23.710;2023-02-26T00:10:08;98.57;;;54.90;;
21876;SDS011;11103;43.788;23.710;2023-02-26T00:12:36;89.07;;;51.27;;
21876;SDS011;11103;43.788;23.710;2023-02-26T00:15:02;92.73;;;50.83;;
21876;SDS011;11103;43.788;23.710;2023-02-26T00:20:00;91.00;;;49.90;;
21876;SDS011;11103;43.788;23.710;2023-02-26T00:22:26;98.67;;;53.80;;
21876;SDS011;11103;43.788;23.710;2023-02-26T00:24:52;117.73;;;60.23;;
21876;SDS011;11103;43.788;23.710;2023-02-26T00:27:17;120.07;;;60.10;;
21876;SDS011;11103;43.788;23.710;2023-02-26T00:29:43;118.20;;;62.83;;
21876;SDS011;11103;43.788;23.710;2023-02-26T00:32:09;118.40;;;64.23;;
21876;SDS011;11103;43.788;23.710;2023-02-26T00:34:35;117.07;;;62.07;;
21876;SDS011;11103;43.788;23.710;2023-02-26T00:42:45;114.87;;;61.60;;
21876;SDS011;11103;43.788;23.710;2023-02-26T00:45:11;117.63;;;62.93;;
21876;SDS011;11103;43.788;23.710;2023-02-26T00:47:43;124.07;;;66.97;;
21876;SDS011;11103;43.788;23.710;2023-02-26T00:55:42;117.43;;;65.23;;
21876;SDS011;11103;43.788;23.710;2023-02-26T00:58:08;115.33;;;60.43;;
21876;SDS011;11103;43.788;23.710;2023-02-26T01:00:33;112.20;;;60.40;;
21876;SDS011;11103;43.788;23.710;2023-02-26T01:02:59;109.10;;;57.00;;
21876;SDS011;11103;43.788;23.710;2023-02-26T01:05:25;105.80;;;55.70;;
21876;SDS011;11103;43.788;23.710;2023-02-26T01:07:53;98.63;;;53.93;;
21876;SDS011;11103;43.788;23.710;2023-02-26T01:10:26;100.10;;;53.50;;
21876;SDS011;11103;43.788;23.710;2023-02-26T01:12:52;106.80;;;57.87;;
21876;SDS011;11103;43.788;23.710;2023-02-26T01:15:18;103.50;;;55.17;;
21876;SDS011;11103;43.788;23.710;2023-02-26T01:20:20;90.33;;;52.73;;
21876;SDS011;11103;43.788;23.710;2023-02-26T01:25:40;90.87;;;48.43;;
21876;SDS011;11103;43.788;23.710;2023-02-26T01:28:13;103.60;;;57.97;;
21876;SDS011;11103;43.788;23.710;2023-02-26T01:30:39;102.70;;;55.63;;
21876;SDS011;11103;43.788;23.710;2023-02-26T01:38:39;104.47;;;55.33;;
21876;SDS011;11103;43.788;23.710;2023-02-26T01:49:23;102.60;;;55.40;;
21876;SDS011;11103;43.788;23.710;2023-02-26T01:54:16;89.23;;;53.00;;
21876;SDS011;11103;43.788;23.710;2023-02-26T01:56:47;98.47;;;52.10;;
21876;SDS011;11103;43.788;23.710;2023-02-26T01:59:16;104.93;;;56.27;;
21876;SDS011;11103;43.788;23.710;2023-02-26T02:01:48;105.63;;;53.90;;
21876;SDS011;11103;43.788;23.710;2023-02-26T02:04:15;97.40;;;54.00;;
21876;SDS011;11103;43.788;23.710;2023-02-26T02:06:41;85.47;;;49.93;;
21876;SDS011;11103;43.788;23.710;2023-02-26T02:09:07;88.50;;;50.20;;
21876;SDS011;11103;43.788;23.710;2023-02-26T02:11:34;93.00;;;48.83;;
21876;SDS011;11103;43.788;23.710;2023-02-26T02:25:04;73.70;;;43.60;;
21876;SDS011;11103;43.788;23.710;2023-02-26T02:30:32;79.20;;;44.53;;
21876;SDS011;11103;43.788;23.710;2023-02-26T02:33:14;81.97;;;44.43;;
21876;SDS011;11103;43.788;23.710;2023-02-26T02:35:53;83.03;;;46.97;;
21876;SDS011;11103;43.788;23.710;2023-02-26T02:38:32;80.00;;;45.30;;
21876;SDS011;11103;43.788;23.710;2023-02-26T02:41:10;89.93;;;48.97;;
21876;SDS011;11103;43.788;23.710;2023-02-26T02:43:46;94.53;;;51.67;;
21876;SDS011;11103;43.788;23.710;2023-02-26T02:46:22;103.27;;;52.27;;
21876;SDS011;11103;43.788;23.710;2023-02-26T02:48:53;186.23;;;76.83;;
21876;SDS011;11103;43.788;23.710;2023-02-26T02:51:38;168.90;;;68.73;;
21876;SDS011;11103;43.788;23.710;2023-02-26T02:56:44;179.80;;;70.73;;
21876;SDS011;11103;43.788;23.710;2023-02-26T02:59:21;161.20;;;69.90;;
21876;SDS011;11103;43.788;23.710;2023-02-26T03:01:59;154.03;;;65.50;;
21876;SDS011;11103;43.788;23.710;2023-02-26T03:04:40;107.73;;;53.10;;
21876;SDS011;11103;43.788;23.710;2023-02-26T03:07:07;116.13;;;54.93;;
21876;SDS011;11103;43.788;23.710;2023-02-26T03:09:33;101.93;;;52.57;;
21876;SDS011;11103;43.788;23.710;2023-02-26T03:11:58;100.60;;;51.40;;
21876;SDS011;11103;43.788;23.710;2023-02-26T03:14:24;92.77;;;52.60;;
21876;SDS011;11103;43.788;23.710;2023-02-26T03:19:30;107.50;;;52.57;;
21876;SDS011;11103;43.788;23.710;2023-02-26T03:22:13;102.40;;;52.47;;
21876;SDS011;11103;43.788;23.710;2023-02-26T03:24:49;223.73;;;90.47;;
21876;SDS011;11103;43.788;23.710;2023-02-26T03:30:04;165.10;;;75.40;;
21876;SDS011;11103;43.788;23.710;2023-02-26T03:32:40;101.63;;;53.30;;
21876;SDS011;11103;43.788;23.710;2023-02-26T03:35:28;100.07;;;53.87;;
21876;SDS011;11103;43.788;23.710;2023-02-26T03:38:17;221.40;;;95.33;;
21876;SDS011;11103;43.788;23.710;2023-02-26T03:41:07;182.30;;;81.40;;
21876;SDS011;11103;43.788;23.710;2023-02-26T03:43:38;171.20;;;78.67;;
21876;SDS011;11103;43.788;23.710;2023-02-26T03:46:15;150.10;;;69.07;;
21876;SDS011;11103;43.788;23.710;2023-02-26T03:48:45;124.90;;;60.00;;
21876;SDS011;11103;43.788;23.710;2023-02-26T03:51:15;97.87;;;50.93;;
21876;SDS011;11103;43.788;23.710;2023-02-26T03:53:47;105.93;;;54.90;;
21876;SDS011;11103;43.788;23.710;2023-02-26T03:56:22;105.07;;;49.43;;
21876;SDS011;11103;43.788;23.710;2023-02-26T03:58:53;90.07;;;47.43;;
21876;SDS011;11103;43.788;23.710;2023-02-26T04:01:19;111.70;;;50.77;;
21876;SDS011;11103;43.788;23.710;2023-02-26T04:06:28;60.70;;;30.97;;
21876;SDS011;11103;43.788;23.710;2023-02-26T04:08:54;66.47;;;31.67;;
21876;SDS011;11103;43.788;23.710;2023-02-26T04:11:20;67.93;;;34.03;;
21876;SDS011;11103;43.788;23.710;2023-02-26T04:13:47;91.33;;;47.67;;
21876;SDS011;11103;43.788;23.710;2023-02-26T04:16:14;81.17;;;41.80;;
21876;SDS011;11103;43.788;23.710;2023-02-26T04:18:40;78.63;;;42.00;;
21876;SDS011;11103;43.788;23.710;2023-02-26T04:21:09;135.50;;;70.77;;
21876;SDS011;11103;43.788;23.710;2023-02-26T04:23:36;72.27;;;39.90;;
21876;SDS011;11103;43.788;23.710;2023-02-26T04:26:01;76.20;;;42.60;;
21876;SDS011;11103;43.788;23.710;2023-02-26T04:28:26;74.87;;;43.10;;
21876;SDS011;11103;43.788;23.710;2023-02-26T04:30:52;88.77;;;45.47;;
21876;SDS011;11103;43.788;23.710;2023-02-26T04:33:17;78.40;;;43.07;;
21876;SDS011;11103;43.788;23.710;2023-02-26T04:35:43;65.23;;;38.83;;
21876;SDS011;11103;43.788;23.710;2023-02-26T04:38:08;32.43;;;14.87;;
21876;SDS011;11103;43.788;23.710;2023-02-26T04:40:34;22.10;;;9.70;;
21876;SDS011;11103;43.788;23.710;2023-02-26T04:42:59;26.33;;;9.63;;
21876;SDS011;11103;43.788;23.710;2023-02-26T04:45:24;42.00;;;23.23;;
21876;SDS011;11103;43.788;23.710;2023-02-26T04:47:50;55.73;;;33.67;;
21876;SDS011;11103;43.788;23.710;2023-02-26T04:50:15;61.50;;;37.87;;
21876;SDS011;11103;43.788;23.710;2023-02-26T04:52:41;64.83;;;37.03;;
21876;SDS011;11103;43.788;23.710;2023-02-26T04:55:07;65.83;;;36.27;;
21876;SDS011;11103;43.788;23.710;2023-02-26T04:57:32;63.67;;;38.67;;
21876;SDS011;11103;43.788;23.710;2023-02-26T04:59:58;82.13;;;47.43;;
21876;SDS011;11103;43.788;23.710;2023-02-26T05:02:23;78.33;;;43.73;;
21876;SDS011;11103;43.788;23.710;2023-02-26T05:04:49;66.80;;;38.37;;
21876;SDS011;11103;43.788;23.710;2023-02-26T05:07:14;55.70;;;36.60;;
21876;SDS011;11103;43.788;23.710;2023-02-26T05:09:40;63.73;;;38.90;;
21876;SDS011;11103;43.788;23.710;2023-02-26T05:12:05;74.87;;;39.00;;
21876;SDS011;11103;43.788;23.710;2023-02-26T05:14:31;72.47;;;41.83;;
21876;SDS011;11103;43.788;23.710;2023-02-26T05:16:56;70.23;;;38.20;;
21876;SDS011;11103;43.788;23.710;2023-02-26T05:19:22;72.87;;;39.03;;
21876;SDS011;11103;43.788;23.710;2023-02-26T05:21:48;79.83;;;40.17;;
21876;SDS011;11103;43.788;23.710;2023-02-26T05:24:14;91.17;;;48.23;;
21876;SDS011;11103;43.788;23.710;2023-02-26T05:26:40;127.93;;;55.27;;
21876;SDS011;11103;43.788;23.710;2023-02-26T05:29:05;160.77;;;62.37;;
21876;SDS011;11103;43.788;23.710;2023-02-26T05:31:30;114.40;;;52.23;;
21876;SDS011;11103;43.788;23.710;2023-02-26T05:33:56;104.27;;;47.77;;
21876;SDS011;11103;43.788;23.710;2023-02-26T05:36:22;153.03;;;58.50;;
21876;SDS011;11103;43.788;23.710;2023-02-26T05:38:47;95.73;;;45.93;;
21876;SDS011;11103;43.788;23.710;2023-02-26T05:41:13;88.13;;;44.30;;
21876;SDS011;11103;43.788;23.710;2023-02-26T05:43:38;88.47;;;46.23;;
21876;SDS011;11103;43.788;23.710;2023-02-26T05:46:04;81.10;;;43.27;;
21876;SDS011;11103;43.788;23.710;2023-02-26T05:48:30;86.70;;;44.17;;
21876;SDS011;11103;43.788;23.710;2023-02-26T05:50:55;73.73;;;41.80;;
21876;SDS011;11103;43.788;23.710;2023-02-26T05:53:21;77.07;;;40.53;;
21876;SDS011;11103;43.788;23.710;2023-02-26T05:55:46;86.87;;;48.20;;
21876;SDS011;11103;43.788;23.710;2023-02-26T05:58:12;124.00;;;56.03;;
21876;SDS011;11103;43.788;23.710;2023-02-26T06:00:37;98.13;;;49.40;;
21876;SDS011;11103;43.788;23.710;2023-02-26T06:03:03;105.87;;;52.90;;
21876;SDS011;11103;43.788;23.710;2023-02-26T06:05:28;91.30;;;46.20;;
21876;SDS011;11103;43.788;23.710;2023-02-26T06:07:54;100.70;;;49.33;;
21876;SDS011;11103;43.788;23.710;2023-02-26T06:10:19;86.10;;;43.23;;
21876;SDS011;11103;43.788;23.710;2023-02-26T06:12:45;94.27;;;45.67;;
21876;SDS011;11103;43.788;23.710;2023-02-26T06:15:10;104.43;;;51.63;;
21876;SDS011;11103;43.788;23.710;2023-02-26T06:17:36;128.90;;;58.53;;
21876;SDS011;11103;43.788;23.710;2023-02-26T06:20:03;107.60;;;51.33;;
21876;SDS011;11103;43.788;23.710;2023-02-26T06:22:30;99.53;;;47.73;;
21876;SDS011;11103;43.788;23.710;2023-02-26T06:24:55;98.77;;;48.70;;
21876;SDS011;11103;43.788;23.710;2023-02-26T06:27:21;99.27;;;46.90;;
21876;SDS011;11103;43.788;23.710;2023-02-26T06:29:47;93.47;;;47.47;;
21876;SDS011;11103;43.788;23.710;2023-02-26T06:32:13;87.90;;;44.77;;
21876;SDS011;11103;43.788;23.710;2023-02-26T06:34:38;96.43;;;50.20;;
21876;SDS011;11103;43.788;23.710;2023-02-26T06:37:03;86.87;;;43.93;;
21876;SDS011;11103;43.788;23.710;2023-02-26T06:39:29;82.77;;;42.67;;
21876;SDS011;11103;43.788;23.710;2023-02-26T06:41:54;82.10;;;43.53;;
21876;SDS011;11103;43.788;23.710;2023-02-26T06:44:20;85.17;;;46.53;;
21876;SDS011;11103;43.788;23.710;2023-02-26T06:46:45;101.63;;;50.50;;
21876;SDS011;11103;43.788;23.710;2023-02-26T06:49:11;99.60;;;48.93;;
21876;SDS011;11103;43.788;23.710;2023-02-26T06:51:36;85.37;;;43.33;;
21876;SDS011;11103;43.788;23.710;2023-02-26T06:54:01;82.97;;;44.07;;
21876;SDS011;11103;43.788;23.710;2023-02-26T06:56:27;83.23;;;43.47;;
21876;SDS011;11103;43.788;23.710;2023-02-26T06:58:53;84.73;;;43.83;;
21876;SDS011;11103;43.788;23.710;2023-02-26T07:01:18;90.80;;;43.17;;
21876;SDS011;11103;43.788;23.710;2023-02-26T07:03:44;86.97;;;46.97;;
21876;SDS011;11103;43.788;23.710;2023-02-26T07:06:09;88.87;;;44.20;;
21876;SDS011;11103;43.788;23.710;2023-02-26T07:08:36;80.13;;;43.73;;
21876;SDS011;11103;43.788;23.710;2023-02-26T07:11:02;85.67;;;44.97;;
21876;SDS011;11103;43.788;23.710;2023-02-26T07:13:28;83.27;;;42.13;;
21876;SDS011;11103;43.788;23.710;2023-02-26T07:15:53;85.93;;;43.57;;
21876;SDS011;11103;43.788;23.710;2023-02-26T07:18:19;85.47;;;42.83;;
21876;SDS011;11103;43.788;23.710;2023-02-26T07:20:44;76.80;;;41.30;;
21876;SDS011;11103;43.788;23.710;2023-02-26T07:23:14;70.07;;;40.03;;
21876;SDS011;11103;43.788;23.710;2023-02-26T07:25:39;71.00;;;39.37;;
21876;SDS011;11103;43.788;23.710;2023-02-26T07:28:05;70.07;;;38.53;;
21876;SDS011;11103;43.788;23.710;2023-02-26T07:30:30;69.03;;;39.70;;
21876;SDS011;11103;43.788;23.710;2023-02-26T07:32:56;72.73;;;38.97;;
21876;SDS011;11103;43.788;23.710;2023-02-26T07:35:22;66.63;;;36.97;;
21876;SDS011;11103;43.788;23.710;2023-02-26T07:37:47;63.80;;;37.40;;
21876;SDS011;11103;43.788;23.710;2023-02-26T07:40:13;61.63;;;35.40;;
21876;SDS011;11103;43.788;23.710;2023-02-26T07:42:40;64.27;;;36.70;;
21876;SDS011;11103;43.788;23.710;2023-02-26T07:45:06;66.07;;;35.77;;
21876;SDS011;11103;43.788;23.710;2023-02-26T07:47:32;60.90;;;36.87;;
21876;SDS011;11103;43.788;23.710;2023-02-26T07:49:58;61.93;;;35.30;;
21876;SDS011;11103;43.788;23.710;2023-02-26T07:52:24;51.03;;;26.57;;
21876;SDS011;11103;43.788;23.710;2023-02-26T07:54:50;30.00;;;9.67;;
21876;SDS011;11103;43.788;23.710;2023-02-26T07:57:15;25.60;;;6.63;;
21876;SDS011;11103;43.788;23.710;2023-02-26T07:59:40;27.33;;;5.90;;
21876;SDS011;11103;43.788;23.710;2023-02-26T08:02:06;23.40;;;5.73;;
21876;SDS011;11103;43.788;23.710;2023-02-26T08:04:32;22.03;;;5.80;;
21876;SDS011;11103;43.788;23.710;2023-02-26T08:07:00;24.20;;;5.27;;
21876;SDS011;11103;43.788;23.710;2023-02-26T08:09:26;30.80;;;6.10;;
21876;SDS011;11103;43.788;23.710;2023-02-26T08:11:52;20.23;;;5.27;;
21876;SDS011;11103;43.788;23.710;2023-02-26T08:14:18;29.20;;;5.30;;
21876;SDS011;11103;43.788;23.710;2023-02-26T08:16:43;25.03;;;5.17;;
21876;SDS011;11103;43.788;23.710;2023-02-26T08:19:08;22.33;;;6.50;;
21876;SDS011;11103;43.788;23.710;2023-02-26T08:21:34;32.33;;;5.90;;
21876;SDS011;11103;43.788;23.710;2023-02-26T08:24:00;21.93;;;5.70;;
21876;SDS011;11103;43.788;23.710;2023-02-26T08:26:25;26.40;;;6.10;;
21876;SDS011;11103;43.788;23.710;2023-02-26T08:28:51;16.77;;;6.20;;
21876;SDS011;11103;43.788;23.710;2023-02-26T08:31:16;29.80;;;6.87;;
21876;SDS011;11103;43.788;23.710;2023-02-26T08:33:42;20.73;;;5.23;;
21876;SDS011;11103;43.788;23.710;2023-02-26T08:36:08;18.73;;;5.27;;
21876;SDS011;11103;43.788;23.710;2023-02-26T08:38:34;33.67;;;5.67;;
21876;SDS011;11103;43.788;23.710;2023-02-26T08:40:59;29.23;;;6.23;;
21876;SDS011;11103;43.788;23.710;2023-02-26T08:43:25;36.13;;;6.07;;
21876;SDS011;11103;43.788;23.710;2023-02-26T08:45:52;27.07;;;5.53;;
21876;SDS011;11103;43.788;23.710;2023-02-26T08:48:18;26.87;;;5.57;;
21876;SDS011;11103;43.788;23.710;2023-02-26T08:50:43;23.53;;;5.70;;
21876;SDS011;11103;43.788;23.710;2023-02-26T08:53:09;24.03;;;6.33;;
21876;SDS011;11103;43.788;23.710;2023-02-26T08:55:34;31.10;;;6.80;;
21876;SDS011;11103;43.788;23.710;2023-02-26T08:58:00;21.53;;;5.30;;
21876;SDS011;11103;43.788;23.710;2023-02-26T09:00:25;20.97;;;5.40;;
21876;SDS011;11103;43.788;23.710;2023-02-26T09:02:51;25.53;;;5.73;;
21876;SDS011;11103;43.788;23.710;2023-02-26T09:05:16;29.43;;;6.27;;
21876;SDS011;11103;43.788;23.710;2023-02-26T09:07:42;35.47;;;5.80;;
21876;SDS011;11103;43.788;23.710;2023-02-26T09:10:09;33.07;;;6.10;;
21876;SDS011;11103;43.788;23.710;2023-02-26T09:12:35;28.37;;;5.70;;
21876;SDS011;11103;43.788;23.710;2023-02-26T09:15:01;34.13;;;6.60;;
21876;SDS011;11103;43.788;23.710;2023-02-26T09:17:28;40.53;;;6.10;;
21876;SDS011;11103;43.788;23.710;2023-02-26T09:19:54;33.10;;;5.77;;
21876;SDS011;11103;43.788;23.710;2023-02-26T09:22:19;28.23;;;5.57;;
21876;SDS011;11103;43.788;23.710;2023-02-26T09:24:45;31.30;;;6.03;;
21876;SDS011;11103;43.788;23.710;2023-02-26T09:27:10;23.20;;;5.90;;
21876;SDS011;11103;43.788;23.710;2023-02-26T09:29:35;33.73;;;5.83;;
21876;SDS011;11103;43.788;23.710;2023-02-26T09:32:02;24.47;;;5.73;;
21876;SDS011;11103;43.788;23.710;2023-02-26T09:34:29;25.47;;;5.63;;
21876;SDS011;11103;43.788;23.710;2023-02-26T09:36:54;29.70;;;6.37;;
21876;SDS011;11103;43.788;23.710;2023-02-26T09:39:20;26.00;;;5.30;;
21876;SDS011;11103;43.788;23.710;2023-02-26T09:41:47;31.70;;;5.90;;
21876;SDS011;11103;43.788;23.710;2023-02-26T09:44:17;23.17;;;5.67;;
21876;SDS011;11103;43.788;23.710;2023-02-26T09:55:30;31.30;;;5.73;;
21876;SDS011;11103;43.788;23.710;2023-02-26T09:58:03;30.17;;;6.03;;
21876;SDS011;11103;43.788;23.710;2023-02-26T10:09:18;29.70;;;6.20;;
21876;SDS011;11103;43.788;23.710;2023-02-26T10:11:49;27.10;;;5.47;;
21876;SDS011;11103;43.788;23.710;2023-02-26T10:14:27;23.70;;;6.03;;
21876;SDS011;11103;43.788;23.710;2023-02-26T10:17:01;32.73;;;6.20;;
21876;SDS011;11103;43.788;23.710;2023-02-26T10:19:50;22.83;;;5.70;;
21876;SDS011;11103;43.788;23.710;2023-02-26T10:22:30;29.50;;;6.17;;
21876;SDS011;11103;43.788;23.710;2023-02-26T10:25:08;31.33;;;6.87;;
21876;SDS011;11103;43.788;23.710;2023-02-26T10:27:54;38.33;;;7.47;;
21876;SDS011;11103;43.788;23.710;2023-02-26T10:30:34;27.73;;;6.97;;
21876;SDS011;11103;43.788;23.710;2023-02-26T10:35:36;34.27;;;6.50;;
21876;SDS011;11103;43.788;23.710;2023-02-26T10:38:17;26.43;;;6.07;;
21876;SDS011;11103;43.788;23.710;2023-02-26T10:43:42;32.83;;;5.50;;
21876;SDS011;11103;43.788;23.710;2023-02-26T10:52:09;29.23;;;6.50;;
21876;SDS011;11103;43.788;23.710;2023-02-26T10:54:39;31.27;;;6.63;;
21876;SDS011;11103;43.788;23.710;2023-02-26T10:57:28;37.57;;;6.13;;
21876;SDS011;11103;43.788;23.710;2023-02-26T10:59:57;30.53;;;5.93;;
21876;SDS011;11103;43.788;23.710;2023-02-26T11:05:02;24.97;;;5.83;;
21876;SDS011;11103;43.788;23.710;2023-02-26T11:07:29;28.37;;;6.63;;
21876;SDS011;11103;43.788;23.710;2023-02-26T11:09:56;26.97;;;6.93;;
21876;SDS011;11103;43.788;23.710;2023-02-26T11:12:23;21.87;;;5.27;;
21876;SDS011;11103;43.788;23.710;2023-02-26T11:14:49;31.33;;;7.77;;
21876;SDS011;11103;43.788;23.710;2023-02-26T11:19:52;25.40;;;5.67;;
21876;SDS011;11103;43.788;23.710;2023-02-26T11:22:21;29.03;;;6.00;;
21876;SDS011;11103;43.788;23.710;2023-02-26T11:24:50;32.20;;;5.57;;
21876;SDS011;11103;43.788;23.710;2023-02-26T11:27:20;41.87;;;6.33;;
21876;SDS011;11103;43.788;23.710;2023-02-26T11:29:55;28.17;;;6.30;;
21876;SDS011;11103;43.788;23.710;2023-02-26T11:32:23;32.90;;;6.07;;
21876;SDS011;11103;43.788;23.710;2023-02-26T11:34:55;23.60;;;5.57;;
21876;SDS011;11103;43.788;23.710;2023-02-26T11:37:30;28.60;;;6.00;;
21876;SDS011;11103;43.788;23.710;2023-02-26T11:40:04;38.30;;;6.83;;
21876;SDS011;11103;43.788;23.710;2023-02-26T11:42:55;33.73;;;12.63;;
21876;SDS011;11103;43.788;23.710;2023-02-26T11:45:24;23.20;;;13.73;;
21876;SDS011;11103;43.788;23.710;2023-02-26T11:47:58;37.73;;;17.57;;
21876;SDS011;11103;43.788;23.710;2023-02-26T11:50:27;36.10;;;16.63;;
21876;SDS011;11103;43.788;23.710;2023-02-26T11:52:55;33.30;;;18.77;;
21876;SDS011;11103;43.788;23.710;2023-02-26T11:55:29;44.70;;;19.53;;
21876;SDS011;11103;43.788;23.710;2023-02-26T11:57:58;34.23;;;20.70;;
21876;SDS011;11103;43.788;23.710;2023-02-26T12:02:49;36.23;;;20.30;;
21876;SDS011;11103;43.788;23.710;2023-02-26T12:05:16;32.80;;;20.97;;
21876;SDS011;11103;43.788;23.710;2023-02-26T12:07:43;40.97;;;22.70;;
21876;SDS011;11103;43.788;23.710;2023-02-26T12:10:17;48.17;;;21.07;;
21876;SDS011;11103;43.788;23.710;2023-02-26T12:12:55;39.00;;;21.97;;
21876;SDS011;11103;43.788;23.710;2023-02-26T12:15:32;42.90;;;23.10;;
21876;SDS011;11103;43.788;23.710;2023-02-26T12:26:18;45.40;;;24.93;;
21876;SDS011;11103;43.788;23.710;2023-02-26T12:29:03;42.20;;;24.57;;
21876;SDS011;11103;43.788;23.710;2023-02-26T12:31:48;39.90;;;25.17;;
21876;SDS011;11103;43.788;23.710;2023-02-26T12:43:18;50.20;;;27.53;;
21876;SDS011;11103;43.788;23.710;2023-02-26T12:45:51;43.03;;;26.73;;
21876;SDS011;11103;43.788;23.710;2023-02-26T12:54:10;47.37;;;26.63;;
21876;SDS011;11103;43.788;23.710;2023-02-26T13:15:38;45.40;;;25.00;;
21876;SDS011;11103;43.788;23.710;2023-02-26T13:20:53;38.13;;;22.67;;
21876;SDS011;11103;43.788;23.710;2023-02-26T13:26:46;36.97;;;23.50;;
21876;SDS011;11103;43.788;23.710;2023-02-26T13:31:52;37.40;;;22.23;;
21876;SDS011;11103;43.788;23.710;2023-02-26T13:45:53;36.57;;;20.90;;
21876;SDS011;11103;43.788;23.710;2023-02-26T13:48:39;40.43;;;21.07;;
21876;SDS011;11103;43.788;23.710;2023-02-26T14:04:23;32.20;;;18.23;;
21876;SDS011;11103;43.788;23.710;2023-02-26T14:06:51;32.40;;;18.47;;
21876;SDS011;11103;43.788;23.710;2023-02-26T14:12:00;34.03;;;17.57;;
21876;SDS011;11103;43.788;23.710;2023-02-26T14:19:42;24.90;;;15.57;;
21876;SDS011;11103;43.788;23.710;2023-02-26T14:25:00;27.03;;;16.40;;
21876;SDS011;11103;43.788;23.710;2023-02-26T14:27:43;25.50;;;14.93;;
21876;SDS011;11103;43.788;23.710;2023-02-26T14:30:27;22.87;;;14.53;;
21876;SDS011;11103;43.788;23.710;2023-02-26T14:35:30;22.87;;;14.40;;
21876;SDS011;11103;43.788;23.710;2023-02-26T14:38:22;24.57;;;14.60;;
21876;SDS011;11103;43.788;23.710;2023-02-26T14:40:55;26.40;;;14.13;;
21876;SDS011;11103;43.788;23.710;2023-02-26T14:45:55;26.90;;;14.30;;
21876;SDS011;11103;43.788;23.710;2023-02-26T14:48:21;43.30;;;21.07;;
21876;SDS011;11103;43.788;23.710;2023-02-26T14:53:47;27.57;;;15.67;;
21876;SDS011;11103;43.788;23.710;2023-02-26T14:59:16;29.93;;;18.80;;
21876;SDS011;11103;43.788;23.710;2023-02-26T15:04:51;30.60;;;16.60;;
21876;SDS011;11103;43.788;23.710;2023-02-26T15:18:42;26.57;;;14.77;;
21876;SDS011;11103;43.788;23.710;2023-02-26T15:23:57;28.83;;;14.87;;
21876;SDS011;11103;43.788;23.710;2023-02-26T15:26:25;23.43;;;13.60;;
21876;SDS011;11103;43.788;23.710;2023-02-26T15:28:53;20.53;;;13.63;;
21876;SDS011;11103;43.788;23.710;2023-02-26T15:31:26;26.83;;;15.43;;
21876;SDS011;11103;43.788;23.710;2023-02-26T15:34:04;27.27;;;13.93;;
21876;SDS011;11103;43.788;23.710;2023-02-26T15:36:30;28.03;;;14.00;;
21876;SDS011;11103;43.788;23.710;2023-02-26T15:38:57;23.47;;;12.17;;
21876;SDS011;11103;43.788;23.710;2023-02-26T15:41:25;21.93;;;13.70;;
21876;SDS011;11103;43.788;23.710;2023-02-26T15:43:57;30.17;;;18.13;;
21876;SDS011;11103;43.788;23.710;2023-02-26T15:46:28;24.83;;;17.10;;
21876;SDS011;11103;43.788;23.710;2023-02-26T15:49:00;23.53;;;14.03;;
21876;SDS011;11103;43.788;23.710;2023-02-26T15:51:29;19.87;;;11.33;;
21876;SDS011;11103;43.788;23.710;2023-02-26T15:53:55;19.40;;;12.03;;
21876;SDS011;11103;43.788;23.710;2023-02-26T15:56:23;26.97;;;14.83;;
21876;SDS011;11103;43.788;23.710;2023-02-26T15:58:52;22.07;;;12.53;;
21876;SDS011;11103;43.788;23.710;2023-02-26T16:01:23;20.90;;;12.00;;
21876;SDS011;11103;43.788;23.710;2023-02-26T16:03:51;21.73;;;11.63;;
21876;SDS011;11103;43.788;23.710;2023-02-26T16:06:31;20.67;;;12.03;;
21876;SDS011;11103;43.788;23.710;2023-02-26T16:08:59;20.43;;;11.57;;
21876;SDS011;11103;43.788;23.710;2023-02-26T16:11:27;21.07;;;11.77;;
21876;SDS011;11103;43.788;23.710;2023-02-26T16:13:59;20.67;;;13.20;;
21876;SDS011;11103;43.788;23.710;2023-02-26T16:16:26;43.33;;;20.23;;
21876;SDS011;11103;43.788;23.710;2023-02-26T16:18:54;49.03;;;24.73;;
21876;SDS011;11103;43.788;23.710;2023-02-26T16:21:27;41.27;;;20.03;;
21876;SDS011;11103;43.788;23.710;2023-02-26T16:23:56;34.80;;;17.40;;
21876;SDS011;11103;43.788;23.710;2023-02-26T16:26:25;26.13;;;13.47;;
21876;SDS011;11103;43.788;23.710;2023-02-26T16:28:56;26.57;;;15.77;;
21876;SDS011;11103;43.788;23.710;2023-02-26T16:31:25;30.40;;;16.20;;
21876;SDS011;11103;43.788;23.710;2023-02-26T16:33:53;46.60;;;23.27;;
21876;SDS011;11103;43.788;23.710;2023-02-26T16:36:25;42.97;;;24.60;;
21876;SDS011;11103;43.788;23.710;2023-02-26T16:39:08;21.30;;;13.70;;
21876;SDS011;11103;43.788;23.710;2023-02-26T16:41:42;28.93;;;17.23;;
21876;SDS011;11103;43.788;23.710;2023-02-26T16:46:56;19.37;;;11.90;;
21876;SDS011;11103;43.788;23.710;2023-02-26T16:49:26;23.27;;;14.10;;
21876;SDS011;11103;43.788;23.710;2023-02-26T16:51:56;25.10;;;14.60;;
21876;SDS011;11103;43.788;23.710;2023-02-26T16:57:19;35.33;;;18.23;;
21876;SDS011;11103;43.788;23.710;2023-02-26T16:59:51;32.03;;;19.73;;
21876;SDS011;11103;43.788;23.710;2023-02-26T17:02:21;24.13;;;14.73;;
21876;SDS011;11103;43.788;23.710;2023-02-26T17:04:58;61.33;;;27.20;;
21876;SDS011;11103;43.788;23.710;2023-02-26T17:10:21;106.90;;;38.70;;
21876;SDS011;11103;43.788;23.710;2023-02-26T17:12:53;40.07;;;20.97;;
21876;SDS011;11103;43.788;23.710;2023-02-26T17:15:35;31.73;;;16.77;;
21876;SDS011;11103;43.788;23.710;2023-02-26T17:18:02;38.70;;;20.70;;
21876;SDS011;11103;43.788;23.710;2023-02-26T17:20:28;64.40;;;31.33;;
21876;SDS011;11103;43.788;23.710;2023-02-26T17:22:56;35.27;;;18.33;;
21876;SDS011;11103;43.788;23.710;2023-02-26T17:25:23;24.57;;;11.63;;
21876;SDS011;11103;43.788;23.710;2023-02-26T17:27:53;27.50;;;13.67;;
21876;SDS011;11103;43.788;23.710;2023-02-26T17:30:19;21.57;;;12.57;;
21876;SDS011;11103;43.788;23.710;2023-02-26T17:32:46;56.77;;;24.80;;
21876;SDS011;11103;43.788;23.710;2023-02-26T17:35:12;74.03;;;27.40;;
21876;SDS011;11103;43.788;23.710;2023-02-26T17:37:38;40.13;;;18.80;;
21876;SDS011;11103;43.788;23.710;2023-02-26T17:40:06;63.23;;;20.37;;
21876;SDS011;11103;43.788;23.710;2023-02-26T17:42:50;33.33;;;15.03;;
21876;SDS011;11103;43.788;23.710;2023-02-26T17:45:16;64.33;;;23.30;;
21876;SDS011;11103;43.788;23.710;2023-02-26T17:47:44;44.17;;;19.97;;
21876;SDS011;11103;43.788;23.710;2023-02-26T17:52:42;17.70;;;11.13;;
21876;SDS011;11103;43.788;23.710;2023-02-26T17:55:08;24.33;;;12.90;;
21876;SDS011;11103;43.788;23.710;2023-02-26T17:57:33;18.80;;;11.10;;
21876;SDS011;11103;43.788;23.710;2023-02-26T17:59:59;29.17;;;14.03;;